createdAt,value
2017-04-05T00:00:08.212Z,18.15
2017-04-05T00:01:07.885Z,14.25
2017-04-05T00:02:07.456Z,15.92
2017-04-05T00:03:07.879Z,14.20
2017-04-05T00:04:08.535Z,16.65
2017-04-05T00:05:08.151Z,16.63
2017-04-05T00:06:07.719Z,14.30
2017-04-05T00:07:07.419Z,16.65
2017-04-05T00:08:07.352Z,13.85
2017-04-05T00:09:06.927Z,14.95
2017-04-05T00:10:07.135Z,19.17
2017-04-05T00:11:06.831Z,15.95
2017-04-05T00:12:06.615Z,16.00
2017-04-05T00:13:07.043Z,15.10
2017-04-05T00:14:07.433Z,14.77
2017-04-05T00:15:07.736Z,17.27
2017-04-05T00:16:07.743Z,17.80
2017-04-05T00:17:15.541Z,14.68
2017-04-05T00:18:15.159Z,17.92
2017-04-05T00:19:15.819Z,17.43
2017-04-05T00:20:15.501Z,16.48
2017-04-05T00:21:15.061Z,14.72
2017-04-05T00:22:15.475Z,17.25
2017-04-05T00:23:15.280Z,14.13
2017-04-05T00:24:15.077Z,14.13
2017-04-05T00:25:15.131Z,18.57
2017-04-05T00:26:14.781Z,15.60
2017-04-05T00:27:14.335Z,14.55
2017-04-05T00:28:14.395Z,12.53
2017-04-05T00:29:14.864Z,17.65
2017-04-05T00:30:14.439Z,19.48
2017-04-05T00:31:14.390Z,16.77
2017-04-05T00:32:14.026Z,17.53
2017-04-05T00:33:14.339Z,13.40
2017-04-05T00:34:14.704Z,16.05
2017-04-05T00:35:14.474Z,14.88
2017-04-05T00:36:14.044Z,15.17
2017-04-05T00:37:14.460Z,13.52
2017-04-05T00:38:14.379Z,14.18
2017-04-05T00:39:14.667Z,15.37
2017-04-05T00:40:14.470Z,15.20
2017-04-05T00:41:14.386Z,14.50
2017-04-05T00:42:13.973Z,15.97
2017-04-05T00:43:13.732Z,14.95
2017-04-05T00:44:13.456Z,18.82
2017-04-05T00:45:13.119Z,12.83
2017-04-05T00:46:12.707Z,16.55
2017-04-05T00:47:13.136Z,15.10
2017-04-05T00:48:12.720Z,13.58
2017-04-05T00:49:13.022Z,16.15
2017-04-05T00:50:13.398Z,16.18
2017-04-05T00:51:12.935Z,14.23
2017-04-05T00:52:13.295Z,18.50
2017-04-05T00:53:12.855Z,12.83
2017-04-05T00:54:13.294Z,13.67
2017-04-05T00:55:13.249Z,17.05
2017-04-05T00:56:12.899Z,17.55
2017-04-05T00:57:12.478Z,19.93
2017-04-05T00:58:13.160Z,16.05
2017-04-05T00:59:13.402Z,16.28
2017-04-05T01:00:13.899Z,19.37
2017-04-05T01:01:13.950Z,16.10
2017-04-05T01:02:13.571Z,17.53
2017-04-05T01:03:13.182Z,15.88
2017-04-05T01:04:12.750Z,16.42
2017-04-05T01:05:12.688Z,16.55
2017-04-05T01:06:12.431Z,16.73
2017-04-05T01:07:12.939Z,16.42
2017-04-05T01:08:12.639Z,19.08
2017-04-05T01:09:12.240Z,17.70
2017-04-05T01:10:11.823Z,18.95
2017-04-05T01:11:11.815Z,15.83
2017-04-05T01:12:11.431Z,18.15
2017-04-05T01:13:11.102Z,17.20
2017-04-05T01:14:10.723Z,15.52
2017-04-05T01:15:10.608Z,17.33
2017-04-05T01:16:10.315Z,15.37
2017-04-05T01:17:09.888Z,13.83
2017-04-05T01:18:09.523Z,16.72
2017-04-05T01:19:09.102Z,16.05
2017-04-05T01:20:08.685Z,19.63
2017-04-05T01:21:08.651Z,16.67
2017-04-05T01:22:09.048Z,18.02
2017-04-05T01:23:08.691Z,14.97
2017-04-05T01:24:08.270Z,16.33
2017-04-05T01:25:08.654Z,14.90
2017-04-05T01:26:08.821Z,17.10
2017-04-05T01:27:08.448Z,15.55
2017-04-05T01:28:07.990Z,21.95
2017-04-05T01:29:08.342Z,17.87
2017-04-05T01:30:08.088Z,15.82
2017-04-05T01:31:07.688Z,17.70
2017-04-05T01:32:07.686Z,15.82
2017-04-05T01:33:07.387Z,17.87
2017-04-05T01:34:07.111Z,16.73
2017-04-05T01:35:07.768Z,16.45
2017-04-05T01:36:07.321Z,12.70
2017-04-05T01:37:07.602Z,19.03
2017-04-05T01:38:07.181Z,14.60
2017-04-05T01:39:06.785Z,12.92
2017-04-05T01:40:06.703Z,16.33
2017-04-05T01:41:06.307Z,16.35
2017-04-05T01:42:05.910Z,16.42
2017-04-05T01:43:05.743Z,18.67
2017-04-05T01:44:06.302Z,15.52
2017-04-05T01:45:06.044Z,15.45
2017-04-05T01:46:05.611Z,16.78
2017-04-05T01:47:06.023Z,18.25
2017-04-05T01:48:05.635Z,17.85
2017-04-05T01:49:05.267Z,18.30
2017-04-05T01:50:05.687Z,19.65
2017-04-05T01:51:07.675Z,14.75
2017-04-05T01:52:07.594Z,19.50
2017-04-05T01:53:07.580Z,16.80
2017-04-05T01:54:07.483Z,17.53
2017-04-05T01:55:07.074Z,16.28
2017-04-05T01:56:08.078Z,15.33
2017-04-05T01:57:08.393Z,17.42
2017-04-05T01:58:08.324Z,16.65
2017-04-05T01:59:09.324Z,18.72
2017-04-05T02:00:09.019Z,19.60
2017-04-05T02:01:08.587Z,17.63
2017-04-05T02:02:08.195Z,18.45
2017-04-05T02:03:07.861Z,20.15
2017-04-05T02:04:07.431Z,19.20
2017-04-05T02:05:07.783Z,17.10
2017-04-05T02:06:07.369Z,18.75
2017-04-05T02:07:07.399Z,17.98
2017-04-05T02:08:06.996Z,17.48
2017-04-05T02:09:06.580Z,19.62
2017-04-05T02:10:06.119Z,22.80
2017-04-05T02:11:05.699Z,20.50
2017-04-05T02:12:05.252Z,20.20
2017-04-05T02:13:04.839Z,26.07
2017-04-05T02:14:05.355Z,21.37
2017-04-05T02:15:05.644Z,19.07
2017-04-05T02:16:05.591Z,19.97
2017-04-05T02:17:05.319Z,22.98
2017-04-05T02:18:04.891Z,20.27
2017-04-05T02:19:06.155Z,22.43
2017-04-05T02:20:05.744Z,20.02
2017-04-05T02:21:05.332Z,19.62
2017-04-05T02:22:05.291Z,20.32
2017-04-05T02:23:04.884Z,21.65
2017-04-05T02:24:04.453Z,22.20
2017-04-05T02:25:04.415Z,22.82
2017-04-05T02:26:04.759Z,21.85
2017-04-05T02:27:05.243Z,21.03
2017-04-05T02:28:05.982Z,20.67
2017-04-05T02:29:06.268Z,20.38
2017-04-05T02:30:05.828Z,20.80
2017-04-05T02:31:05.380Z,21.35
2017-04-05T02:32:05.714Z,21.88
2017-04-05T02:33:05.428Z,22.58
2017-04-05T02:34:04.959Z,22.38
2017-04-05T02:35:04.520Z,21.10
2017-04-05T02:36:04.191Z,22.48
2017-04-05T02:37:04.967Z,17.97
2017-04-05T02:38:04.559Z,17.10
2017-04-05T02:39:04.385Z,20.33
2017-04-05T02:40:04.204Z,19.55
2017-04-05T02:41:03.780Z,15.70
2017-04-05T02:42:03.367Z,19.92
2017-04-05T02:43:02.983Z,17.17
2017-04-05T02:44:02.892Z,19.90
2017-04-05T02:45:02.471Z,19.90
2017-04-05T02:46:02.191Z,19.60
2017-04-05T02:47:01.858Z,20.93
2017-04-05T02:48:01.460Z,18.97
2017-04-05T02:49:01.047Z,20.05
2017-04-05T02:50:00.806Z,16.70
2017-04-05T02:51:01.138Z,16.93
2017-04-05T02:52:01.791Z,21.45
2017-04-05T02:53:01.386Z,23.50
2017-04-05T02:54:01.059Z,20.38
2017-04-05T02:55:01.340Z,22.13
2017-04-05T02:56:00.896Z,21.93
2017-04-05T02:57:00.767Z,20.02
2017-04-05T02:58:01.155Z,19.52
2017-04-05T02:59:00.868Z,21.17
2017-04-05T03:00:01.168Z,20.38
2017-04-05T03:01:00.707Z,20.37
2017-04-05T03:02:00.309Z,19.85
2017-04-05T03:03:00.070Z,18.40
2017-04-05T03:03:59.628Z,20.28
2017-04-05T03:04:59.356Z,19.38
2017-04-05T03:05:59.624Z,14.78
2017-04-05T03:06:59.184Z,20.58
2017-04-05T03:07:59.469Z,18.25
2017-04-05T03:08:59.048Z,19.58
2017-04-05T03:09:58.608Z,17.40
2017-04-05T03:10:58.926Z,15.45
2017-04-05T03:11:59.370Z,20.23
2017-04-05T03:12:58.910Z,21.52
2017-04-05T03:13:58.815Z,20.55
2017-04-05T03:14:58.642Z,20.80
2017-04-05T03:15:58.971Z,18.43
2017-04-05T03:16:58.543Z,18.05
2017-04-05T03:17:59.231Z,21.18
2017-04-05T03:18:58.775Z,19.88
2017-04-05T03:19:59.067Z,18.38
2017-04-05T03:20:58.775Z,19.17
2017-04-05T03:21:58.384Z,21.58
2017-04-05T03:22:58.674Z,18.93
2017-04-05T03:23:58.260Z,19.52
2017-04-05T03:24:57.822Z,20.60
2017-04-05T03:25:57.439Z,19.98
2017-04-05T03:26:57.004Z,17.98
2017-04-05T03:27:57.282Z,22.88
2017-04-05T03:28:56.984Z,17.92
2017-04-05T03:29:57.402Z,18.82
2017-04-05T03:30:57.735Z,23.58
2017-04-05T03:31:58.018Z,23.48
2017-04-05T03:32:57.599Z,21.62
2017-04-05T03:33:57.215Z,24.87
2017-04-05T03:34:56.771Z,25.87
2017-04-05T03:35:56.340Z,21.00
2017-04-05T03:36:56.633Z,21.47
2017-04-05T03:37:56.599Z,21.35
2017-04-05T03:38:56.139Z,21.88
2017-04-05T03:39:55.664Z,24.00
2017-04-05T03:40:55.362Z,19.65
2017-04-05T03:41:54.956Z,18.70
2017-04-05T03:42:55.522Z,19.28
2017-04-05T03:43:55.112Z,21.55
2017-04-05T03:44:54.671Z,22.25
2017-04-05T03:45:54.994Z,21.93
2017-04-05T03:46:54.547Z,19.53
2017-04-05T03:47:54.209Z,21.77
2017-04-05T03:48:53.787Z,22.92
2017-04-05T03:49:54.168Z,22.38
2017-04-05T03:50:53.754Z,23.15
2017-04-05T03:51:53.394Z,22.10
2017-04-05T03:52:53.695Z,19.63
2017-04-05T03:53:54.058Z,21.28
2017-04-05T03:54:53.599Z,16.50
2017-04-05T03:55:53.147Z,19.40
2017-04-05T03:56:52.779Z,22.78
2017-04-05T03:57:52.391Z,22.93
2017-04-05T03:58:51.960Z,23.67
2017-04-05T03:59:51.495Z,20.60
2017-04-05T04:00:51.791Z,23.98
2017-04-05T04:01:52.003Z,26.63
2017-04-05T04:02:51.723Z,23.48
2017-04-05T04:03:52.024Z,19.33
2017-04-05T04:04:51.628Z,22.07
2017-04-05T04:05:52.235Z,20.75
2017-04-05T04:06:51.856Z,23.82
2017-04-05T04:07:52.554Z,22.05
2017-04-05T04:08:52.298Z,23.35
2017-04-05T04:09:52.533Z,27.12
2017-04-05T04:10:52.235Z,26.52
2017-04-05T04:11:51.880Z,23.95
2017-04-05T04:12:51.491Z,22.47
2017-04-05T04:13:51.778Z,23.12
2017-04-05T04:14:51.608Z,27.17
2017-04-05T04:15:52.083Z,21.10
2017-04-05T04:16:51.657Z,27.17
2017-04-05T04:17:51.228Z,26.07
2017-04-05T04:18:51.496Z,23.77
2017-04-05T04:19:51.079Z,21.15
2017-04-05T04:20:50.685Z,27.90
2017-04-05T04:21:50.284Z,25.10
2017-04-05T04:22:49.818Z,22.98
2017-04-05T04:23:50.236Z,24.18
2017-04-05T04:24:49.779Z,23.95
2017-04-05T04:25:49.335Z,24.28
2017-04-05T04:26:49.659Z,20.05
2017-04-05T04:27:50.059Z,23.20
2017-04-05T04:28:49.636Z,22.77
2017-04-05T04:29:49.187Z,21.45
2017-04-05T04:30:48.766Z,24.35
2017-04-05T04:31:49.083Z,21.88
2017-04-05T04:32:49.592Z,30.53
2017-04-05T04:33:50.239Z,22.25
2017-04-05T04:34:50.038Z,26.97
2017-04-05T04:35:50.360Z,21.63
2017-04-05T04:36:49.891Z,22.82
2017-04-05T04:37:49.539Z,22.17
2017-04-05T04:38:50.024Z,24.53
2017-04-05T04:39:49.703Z,23.02
2017-04-05T04:40:49.238Z,25.95
2017-04-05T04:41:49.550Z,23.30
2017-04-05T04:42:49.827Z,21.88
2017-04-05T04:43:49.582Z,22.67
2017-04-05T04:44:49.142Z,21.52
2017-04-05T04:45:48.764Z,22.60
2017-04-05T04:46:49.055Z,26.12
2017-04-05T04:47:48.594Z,24.43
2017-04-05T04:48:48.139Z,24.75
2017-04-05T04:49:47.695Z,25.18
2017-04-05T04:50:47.353Z,25.93
2017-04-05T04:51:47.048Z,21.37
2017-04-05T04:52:46.595Z,23.38
2017-04-05T04:53:46.152Z,23.45
2017-04-05T04:54:46.443Z,23.77
2017-04-05T04:55:46.099Z,24.02
2017-04-05T04:56:45.772Z,22.63
2017-04-05T04:57:46.048Z,35.48
2017-04-05T04:58:45.608Z,25.83
2017-04-05T04:59:45.148Z,26.37
2017-04-05T05:00:44.819Z,22.00
2017-04-05T05:01:44.362Z,25.13
2017-04-05T05:02:43.958Z,21.37
2017-04-05T05:03:43.839Z,23.33
2017-04-05T05:04:43.616Z,21.30
2017-04-05T05:05:44.627Z,22.57
2017-04-05T05:06:45.023Z,25.12
2017-04-05T05:07:45.505Z,25.75
2017-04-05T05:08:45.084Z,20.38
2017-04-05T05:09:44.668Z,20.57
2017-04-05T05:10:44.701Z,19.03
2017-04-05T05:11:44.500Z,22.08
2017-04-05T05:12:44.089Z,23.33
2017-04-05T05:13:43.807Z,22.98
2017-04-05T05:14:43.865Z,26.15
2017-04-05T05:15:44.200Z,21.10
2017-04-05T05:16:43.760Z,24.00
2017-04-05T05:17:43.662Z,20.48
2017-04-05T05:18:43.233Z,26.90
2017-04-05T05:19:42.851Z,21.72
2017-04-05T05:20:42.550Z,25.25
2017-04-05T05:21:42.168Z,26.55
2017-04-05T05:22:42.503Z,23.47
2017-04-05T05:23:42.075Z,23.77
2017-04-05T05:24:42.595Z,25.22
2017-04-05T05:25:42.909Z,19.17
2017-04-05T05:26:43.373Z,24.28
2017-04-05T05:27:42.910Z,22.53
2017-04-05T05:28:42.510Z,24.13
2017-04-05T05:29:42.306Z,22.37
2017-04-05T05:30:41.955Z,24.32
2017-04-05T05:31:41.527Z,25.20
2017-04-05T05:32:41.399Z,24.80
2017-04-05T05:33:41.838Z,29.13
2017-04-05T05:34:41.536Z,21.97
2017-04-05T05:35:41.452Z,25.43
2017-04-05T05:36:41.284Z,23.92
2017-04-05T05:37:40.854Z,24.38
2017-04-05T05:38:41.188Z,27.22
2017-04-05T05:39:40.780Z,21.87
2017-04-05T05:40:41.172Z,24.13
2017-04-05T05:41:40.799Z,24.87
2017-04-05T05:42:40.526Z,26.53
2017-04-05T05:43:40.111Z,21.02
2017-04-05T05:44:39.772Z,21.97
2017-04-05T05:45:39.314Z,23.42
2017-04-05T05:46:38.879Z,22.98
2017-04-05T05:47:39.199Z,27.02
2017-04-05T05:48:39.494Z,26.98
2017-04-05T05:49:39.739Z,25.32
2017-04-05T05:50:40.317Z,30.82
2017-04-05T05:51:39.879Z,27.88
2017-04-05T05:52:39.452Z,27.72
2017-04-05T05:53:39.020Z,29.97
2017-04-05T05:54:39.345Z,26.95
2017-04-05T05:55:39.784Z,23.58
2017-04-05T05:56:39.344Z,30.62
2017-04-05T05:57:39.194Z,26.82
2017-04-05T05:58:39.185Z,29.15
2017-04-05T05:59:39.871Z,24.72
2017-04-05T06:00:39.410Z,24.90
2017-04-05T06:01:39.187Z,23.05
2017-04-05T06:02:39.063Z,25.17
2017-04-05T06:03:38.632Z,29.60
2017-04-05T06:04:38.231Z,30.30
2017-04-05T06:05:38.076Z,29.83
2017-04-05T06:06:37.670Z,27.92
2017-04-05T06:07:37.276Z,24.03
2017-04-05T06:08:36.839Z,25.23
2017-04-05T06:09:36.564Z,27.23
2017-04-05T06:10:36.148Z,26.90
2017-04-05T06:11:35.730Z,28.03
2017-04-05T06:12:35.323Z,24.18
2017-04-05T06:13:34.930Z,26.40
2017-04-05T06:14:34.496Z,25.32
2017-04-05T06:15:34.188Z,28.37
2017-04-05T06:16:33.815Z,22.85
2017-04-05T06:17:33.466Z,30.62
2017-04-05T06:18:33.055Z,21.63
2017-04-05T06:19:33.351Z,34.42
2017-04-05T06:20:32.951Z,22.57
2017-04-05T06:21:32.730Z,23.83
2017-04-05T06:22:32.548Z,26.05
2017-04-05T06:23:32.178Z,26.78
2017-04-05T06:24:31.792Z,27.10
2017-04-05T06:25:31.404Z,24.48
2017-04-05T06:26:30.996Z,26.78
2017-04-05T06:27:30.620Z,26.45
2017-04-05T06:28:30.215Z,21.72
2017-04-05T06:29:29.795Z,25.05
2017-04-05T06:30:29.726Z,23.35
2017-04-05T06:31:29.336Z,24.80
2017-04-05T06:32:28.983Z,24.85
2017-04-05T06:33:29.015Z,25.47
2017-04-05T06:34:28.628Z,24.33
2017-04-05T06:35:28.259Z,25.63
2017-04-05T06:36:27.808Z,28.65
2017-04-05T06:37:27.465Z,25.17
2017-04-05T06:38:27.068Z,23.00
2017-04-05T06:39:27.373Z,23.68
2017-04-05T06:40:26.967Z,23.58
2017-04-05T06:41:26.496Z,25.72
2017-04-05T06:42:26.960Z,23.23
2017-04-05T06:43:26.543Z,23.68
2017-04-05T06:44:26.480Z,27.48
2017-04-05T06:45:26.109Z,28.42
2017-04-05T06:46:26.472Z,21.73
2017-04-05T06:47:26.081Z,21.05
2017-04-05T06:48:25.634Z,25.57
2017-04-05T06:49:25.783Z,23.95
2017-04-05T06:50:25.909Z,26.45
2017-04-05T06:51:25.859Z,25.58
2017-04-05T06:52:25.520Z,23.40
2017-04-05T06:53:25.098Z,26.30
2017-04-05T06:54:24.672Z,22.70
2017-04-05T06:55:24.246Z,23.67
2017-04-05T06:56:24.532Z,24.07
2017-04-05T06:57:24.391Z,24.53
2017-04-05T06:58:24.186Z,23.58
2017-04-05T06:59:23.780Z,22.62
2017-04-05T07:00:24.242Z,20.78
2017-04-05T07:01:23.905Z,27.92
2017-04-05T07:02:23.908Z,24.58
2017-04-05T07:03:23.595Z,22.22
2017-04-05T07:04:23.197Z,23.50
2017-04-05T07:05:23.160Z,24.38
2017-04-05T07:06:22.780Z,24.52
2017-04-05T07:07:23.087Z,20.75
2017-04-05T07:08:23.405Z,23.25
2017-04-05T07:09:23.763Z,19.17
2017-04-05T07:10:23.683Z,22.47
2017-04-05T07:11:23.370Z,20.57
2017-04-05T07:12:23.002Z,24.30
2017-04-05T07:13:22.583Z,19.27
2017-04-05T07:14:22.167Z,20.85
2017-04-05T07:15:22.500Z,22.00
2017-04-05T07:16:22.843Z,19.87
2017-04-05T07:17:23.035Z,23.40
2017-04-05T07:18:22.723Z,24.33
2017-04-05T07:19:22.650Z,20.50
2017-04-05T07:20:22.224Z,24.25
2017-04-05T07:21:21.903Z,22.47
2017-04-05T07:22:21.483Z,18.92
2017-04-05T07:23:21.400Z,20.88
2017-04-05T07:24:21.447Z,22.17
2017-04-05T07:25:21.080Z,22.52
2017-04-05T07:26:21.394Z,22.92
2017-04-05T07:27:21.079Z,25.22
2017-04-05T07:28:21.436Z,24.97
2017-04-05T07:29:22.487Z,20.55
2017-04-05T07:30:22.601Z,20.80
2017-04-05T07:31:23.026Z,24.00
2017-04-05T07:32:22.599Z,23.67
2017-04-05T07:33:22.289Z,22.78
2017-04-05T07:34:21.888Z,19.38
2017-04-05T07:35:21.470Z,24.95
2017-04-05T07:36:21.048Z,21.98
2017-04-05T07:37:21.405Z,23.57
2017-04-05T07:38:20.944Z,20.08
2017-04-05T07:39:20.493Z,23.80
2017-04-05T07:40:20.079Z,21.97
2017-04-05T07:41:19.651Z,22.75
2017-04-05T07:42:19.990Z,24.07
2017-04-05T07:43:19.896Z,24.90
2017-04-05T07:44:19.456Z,22.20
2017-04-05T07:45:19.044Z,22.43
2017-04-05T07:46:18.648Z,29.92
2017-04-05T07:47:18.263Z,23.90
2017-04-05T07:48:19.000Z,21.83
2017-04-05T07:49:19.259Z,22.55
2017-04-05T07:50:19.211Z,22.78
2017-04-05T07:51:19.546Z,28.23
2017-04-05T07:52:19.496Z,20.62
2017-04-05T07:53:19.107Z,28.05
2017-04-05T07:54:19.060Z,27.37
2017-04-05T07:55:18.984Z,23.20
2017-04-05T07:56:18.556Z,20.25
2017-04-05T07:57:18.258Z,28.72
2017-04-05T07:58:17.873Z,24.17
2017-04-05T07:59:17.440Z,26.53
2017-04-05T08:00:17.836Z,25.90
2017-04-05T08:01:17.513Z,22.88
2017-04-05T08:02:17.390Z,24.62
2017-04-05T08:03:17.416Z,26.12
2017-04-05T08:04:17.044Z,27.45
2017-04-05T08:05:16.611Z,23.50
2017-04-05T08:06:16.631Z,23.88
2017-04-05T08:07:16.554Z,23.13
2017-04-05T08:08:16.199Z,24.30
2017-04-05T08:09:15.836Z,23.47
2017-04-05T08:10:15.393Z,26.07
2017-04-05T08:11:15.377Z,29.48
2017-04-05T08:12:16.514Z,21.97
2017-04-05T08:13:17.047Z,24.73
2017-04-05T08:14:17.000Z,24.73
2017-04-05T08:15:16.720Z,25.88
2017-04-05T08:16:16.964Z,30.05
2017-04-05T08:17:16.617Z,24.22
2017-04-05T08:18:16.219Z,25.33
2017-04-05T08:19:15.824Z,27.52
2017-04-05T08:20:15.380Z,27.83
2017-04-05T08:21:14.969Z,26.13
2017-04-05T08:22:14.964Z,26.63
2017-04-05T08:23:15.288Z,26.88
2017-04-05T08:24:14.894Z,24.83
2017-04-05T08:25:14.623Z,27.62
2017-04-05T08:26:14.292Z,27.90
2017-04-05T08:27:13.888Z,24.67
2017-04-05T08:28:13.470Z,25.68
2017-04-05T08:29:13.087Z,26.45
2017-04-05T08:30:12.644Z,27.23
2017-04-05T08:31:12.229Z,28.00
2017-04-05T08:32:11.789Z,26.57
2017-04-05T08:33:11.343Z,28.42
2017-04-05T08:34:10.963Z,24.78
2017-04-05T08:35:10.499Z,24.32
2017-04-05T08:36:10.452Z,29.55
2017-04-05T08:37:10.151Z,27.83
2017-04-05T08:38:10.160Z,25.07
2017-04-05T08:39:09.715Z,26.77
2017-04-05T08:40:09.615Z,29.85
2017-04-05T08:41:09.307Z,28.10
2017-04-05T08:42:08.873Z,27.98
2017-04-05T08:43:08.422Z,29.27
2017-04-05T08:44:08.107Z,27.77
2017-04-05T08:45:08.044Z,27.40
2017-04-05T08:46:08.943Z,30.18
2017-04-05T08:47:08.505Z,31.30
2017-04-05T08:48:09.500Z,29.78
2017-04-05T08:49:09.073Z,26.88
2017-04-05T08:50:09.025Z,29.92
2017-04-05T08:51:08.582Z,28.28
2017-04-05T08:52:08.383Z,27.30
2017-04-05T08:53:07.968Z,27.43
2017-04-05T08:54:08.368Z,23.05
2017-04-05T08:55:08.275Z,27.08
2017-04-05T08:56:08.012Z,26.10
2017-04-05T08:57:07.767Z,25.53
2017-04-05T08:58:07.408Z,23.07
2017-04-05T08:59:08.124Z,27.93
2017-04-05T09:00:07.807Z,27.00
2017-04-05T09:01:07.357Z,25.67
2017-04-05T09:02:06.948Z,27.07
2017-04-05T09:03:06.543Z,27.82
2017-04-05T09:04:06.841Z,26.90
2017-04-05T09:05:06.380Z,30.85
2017-04-05T09:06:06.311Z,27.68
2017-04-05T09:07:06.311Z,26.52
2017-04-05T09:08:05.925Z,28.85
2017-04-05T09:09:06.268Z,25.10
2017-04-05T09:10:06.507Z,29.72
2017-04-05T09:11:06.045Z,25.82
2017-04-05T09:12:06.096Z,25.35
2017-04-05T09:13:06.558Z,26.28
2017-04-05T09:14:06.132Z,26.82
2017-04-05T09:15:05.782Z,32.35
2017-04-05T09:16:05.616Z,27.45
2017-04-05T09:17:06.017Z,27.27
2017-04-05T09:18:06.219Z,26.62
2017-04-05T09:19:05.780Z,28.18
2017-04-05T09:20:05.487Z,31.30
2017-04-05T09:21:05.138Z,24.30
2017-04-05T09:22:05.843Z,25.50
2017-04-05T09:23:05.482Z,28.33
2017-04-05T09:24:05.172Z,26.70
2017-04-05T09:25:05.577Z,28.68
2017-04-05T09:26:05.888Z,28.33
2017-04-05T09:27:06.327Z,28.02
2017-04-05T09:28:05.871Z,27.82
2017-04-05T09:29:06.279Z,27.68
2017-04-05T09:30:05.911Z,26.58
2017-04-05T09:31:06.284Z,24.53
2017-04-05T09:32:06.355Z,29.12
2017-04-05T09:33:07.086Z,25.25
2017-04-05T09:34:07.031Z,27.87
2017-04-05T09:35:06.615Z,26.47
2017-04-05T09:36:06.389Z,23.88
2017-04-05T09:37:06.776Z,27.43
2017-04-05T09:38:06.986Z,30.33
2017-04-05T09:39:06.665Z,26.42
2017-04-05T09:40:06.593Z,29.53
2017-04-05T09:41:06.220Z,25.83
2017-04-05T09:42:06.535Z,26.73
2017-04-05T09:43:06.947Z,22.15
2017-04-05T09:44:07.349Z,28.93
2017-04-05T09:45:08.013Z,26.62
2017-04-05T09:46:07.996Z,26.60
2017-04-05T09:47:08.279Z,27.48
2017-04-05T09:48:07.947Z,32.17
2017-04-05T09:49:07.505Z,27.63
2017-04-05T09:50:07.928Z,27.35
2017-04-05T09:51:07.504Z,27.32
2017-04-05T09:52:08.251Z,27.25
2017-04-05T09:53:07.900Z,28.48
2017-04-05T09:54:07.888Z,28.00
2017-04-05T09:55:07.624Z,27.35
2017-04-05T09:56:07.268Z,24.98
2017-04-05T09:57:06.866Z,33.22
2017-04-05T09:58:06.534Z,23.67
2017-04-05T09:59:06.847Z,25.65
2017-04-05T10:00:06.483Z,26.65
2017-04-05T10:01:06.200Z,27.32
2017-04-05T10:02:05.824Z,26.35
2017-04-05T10:03:05.769Z,27.02
2017-04-05T10:04:06.178Z,29.32
2017-04-05T10:05:06.979Z,31.85
2017-04-05T10:06:06.587Z,25.18
2017-04-05T10:07:06.252Z,28.10
2017-04-05T10:08:05.848Z,28.75
2017-04-05T10:09:06.616Z,29.72
2017-04-05T10:10:07.007Z,24.85
2017-04-05T10:11:07.004Z,26.78
2017-04-05T10:12:06.660Z,27.73
2017-04-05T10:13:06.455Z,27.32
2017-04-05T10:14:06.803Z,25.03
2017-04-05T10:15:06.575Z,27.65
2017-04-05T10:16:06.979Z,24.33
2017-04-05T10:17:07.311Z,24.92
2017-04-05T10:18:06.983Z,25.88
2017-04-05T10:19:06.690Z,26.40
2017-04-05T10:20:07.036Z,27.78
2017-04-05T10:21:07.187Z,23.13
2017-04-05T10:22:07.116Z,24.88
2017-04-05T10:23:07.420Z,27.47
2017-04-05T10:24:07.062Z,24.42
2017-04-05T10:25:07.058Z,23.60
2017-04-05T10:26:07.504Z,23.37
2017-04-05T10:27:08.074Z,23.32
2017-04-05T10:28:07.671Z,24.82
2017-04-05T10:29:07.266Z,21.90
2017-04-05T10:30:06.886Z,25.23
2017-04-05T10:31:07.680Z,22.82
2017-04-05T10:32:07.247Z,23.18
2017-04-05T10:33:06.878Z,25.65
2017-04-05T10:34:06.569Z,22.25
2017-04-05T10:35:06.924Z,23.88
2017-04-05T10:36:07.672Z,25.60
2017-04-05T10:37:07.863Z,24.58
2017-04-05T10:38:07.471Z,24.37
2017-04-05T10:39:07.111Z,25.00
2017-04-05T10:40:06.761Z,27.15
2017-04-05T10:41:07.161Z,26.03
2017-04-05T10:42:07.878Z,23.75
2017-04-05T10:43:07.463Z,22.40
2017-04-05T10:44:07.388Z,26.17
2017-04-05T10:45:07.769Z,22.57
2017-04-05T10:46:07.359Z,24.72
2017-04-05T10:47:07.187Z,21.65
2017-04-05T10:48:07.847Z,23.32
2017-04-05T10:49:07.437Z,22.30
2017-04-05T10:50:07.419Z,24.97
2017-04-05T10:51:07.286Z,25.67
2017-04-05T10:52:06.877Z,27.63
2017-04-05T10:53:06.661Z,22.15
2017-04-05T10:54:06.393Z,23.40
2017-04-05T10:55:06.025Z,27.60
2017-04-05T10:56:06.412Z,32.12
2017-04-05T10:57:06.064Z,25.13
2017-04-05T10:58:06.422Z,21.43
2017-04-05T10:59:06.580Z,26.22
2017-04-05T11:00:06.192Z,26.28
2017-04-05T11:01:05.849Z,22.12
2017-04-05T11:02:05.673Z,22.25
2017-04-05T11:03:06.136Z,24.88
2017-04-05T11:04:07.143Z,24.97
2017-04-05T11:05:06.827Z,24.50
2017-04-05T11:06:07.222Z,28.22
2017-04-05T11:07:06.920Z,23.33
2017-04-05T11:08:06.935Z,23.50
2017-04-05T11:09:06.665Z,21.72
2017-04-05T11:10:06.683Z,21.57
2017-04-05T11:11:06.345Z,22.03
2017-04-05T11:12:06.168Z,23.75
2017-04-05T11:13:06.943Z,25.17
2017-04-05T11:14:06.523Z,27.78
2017-04-05T11:15:06.531Z,24.15
2017-04-05T11:16:06.160Z,24.98
2017-04-05T11:17:05.876Z,27.95
2017-04-05T11:18:06.323Z,27.53
2017-04-05T11:19:05.888Z,27.07
2017-04-05T11:20:05.974Z,31.75
2017-04-05T11:21:05.596Z,23.17
2017-04-05T11:22:05.216Z,27.83
2017-04-05T11:23:05.547Z,27.45
2017-04-05T11:24:05.211Z,24.37
2017-04-05T11:25:05.454Z,25.47
2017-04-05T11:26:05.049Z,25.05
2017-04-05T11:27:05.020Z,27.52
2017-04-05T11:28:05.080Z,24.52
2017-04-05T11:29:06.483Z,28.85
2017-04-05T11:30:06.073Z,23.25
2017-04-05T11:31:05.848Z,26.62
2017-04-05T11:32:05.830Z,23.03
2017-04-05T11:33:05.433Z,23.28
2017-04-05T11:34:05.040Z,24.55
2017-04-05T11:35:04.902Z,25.15
2017-04-05T11:36:05.624Z,26.02
2017-04-05T11:37:06.005Z,23.10
2017-04-05T11:38:06.000Z,22.92
2017-04-05T11:39:06.431Z,25.50
2017-04-05T11:40:05.991Z,23.65
2017-04-05T11:41:05.782Z,22.77
2017-04-05T11:42:05.507Z,28.28
2017-04-05T11:43:05.795Z,24.57
2017-04-05T11:44:06.208Z,25.35
2017-04-05T11:45:06.123Z,23.40
2017-04-05T11:46:05.906Z,23.55
2017-04-05T11:47:06.713Z,24.22
2017-04-05T11:48:06.327Z,24.27
2017-04-05T11:49:06.745Z,21.30
2017-04-05T11:50:08.012Z,25.73
2017-04-05T11:51:07.875Z,22.97
2017-04-05T11:52:07.523Z,23.15
2017-04-05T11:53:07.147Z,23.72
2017-04-05T11:54:06.752Z,24.95
2017-04-05T11:55:06.538Z,23.18
2017-04-05T11:56:06.211Z,21.60
2017-04-05T11:57:05.806Z,23.42
2017-04-05T11:58:05.536Z,25.42
2017-04-05T11:59:05.103Z,24.35
2017-04-05T12:00:04.767Z,22.47
2017-04-05T12:01:04.636Z,22.47
2017-04-05T12:02:04.215Z,21.35
2017-04-05T12:03:04.266Z,25.65
2017-04-05T12:04:03.968Z,25.78
2017-04-05T12:05:03.579Z,24.00
2017-04-05T12:06:03.901Z,23.60
2017-04-05T12:07:03.616Z,21.70
2017-04-05T12:08:03.197Z,23.03
2017-04-05T12:09:03.739Z,26.55
2017-04-05T12:10:03.355Z,20.93
2017-04-05T12:11:03.017Z,23.13
2017-04-05T12:12:03.352Z,25.38
2017-04-05T12:13:03.955Z,22.57
2017-04-05T12:14:03.612Z,22.15
2017-04-05T12:15:03.577Z,21.95
2017-04-05T12:16:04.627Z,21.23
2017-04-05T12:17:04.238Z,21.43
2017-04-05T12:18:03.891Z,20.28
2017-04-05T12:19:03.868Z,20.07
2017-04-05T12:20:03.531Z,24.03
2017-04-05T12:21:03.184Z,23.77
2017-04-05T12:22:03.578Z,21.73
2017-04-05T12:23:04.052Z,20.08
2017-04-05T12:24:03.632Z,23.45
2017-04-05T12:25:03.188Z,20.73
2017-04-05T12:26:02.811Z,19.95
2017-04-05T12:27:03.123Z,20.18
2017-04-05T12:28:03.417Z,20.78
2017-04-05T12:29:02.984Z,24.23
2017-04-05T12:30:02.530Z,21.62
2017-04-05T12:31:02.507Z,21.78
2017-04-05T12:32:02.129Z,19.95
2017-04-05T12:33:01.813Z,22.45
2017-04-05T12:34:01.399Z,20.50
2017-04-05T12:35:01.157Z,20.22
2017-04-05T12:36:00.675Z,18.65
2017-04-05T12:37:00.835Z,19.53
2017-04-05T12:38:00.465Z,21.45
2017-04-05T12:39:00.447Z,18.80
2017-04-05T12:40:00.017Z,20.38
2017-04-05T12:40:59.665Z,19.05
2017-04-05T12:41:59.280Z,20.97
2017-04-05T12:44:57.479Z,18.32
2017-04-05T12:45:57.088Z,19.75
2017-04-05T12:46:56.707Z,19.93
2017-04-05T12:47:56.281Z,20.90
2017-04-05T12:48:55.904Z,23.38
2017-04-05T12:49:55.500Z,21.75
2017-04-05T12:50:55.127Z,21.02
2017-04-05T12:51:54.691Z,20.90
2017-04-05T12:52:54.365Z,20.45